Time;durP1;ratioP1;P1;durP2;ratioP2;P2;SDS_P1;SDS_P2;PMS_P1;PMS_P2;Temp;Humidity;BMP_temperature;BMP_pressure;BME280_temperature;BME280_humidity;BME280_pressure;Samples;Min_cycle;Max_cycle;Signal;HPM_P1;HPM_P2
2021/07/04 00:00:49;;;;;;;68.00;39.33;;;;;;;;;;5090802;28;20020;-65
2021/07/04 00:03:15;;;;;;;74.88;39.85;;;;;;;;;;5110082;28;20023;-65
2021/07/04 00:05:43;;;;;;;65.18;39.60;;;;;;;;;;5107375;28;20102;-65
2021/07/04 00:08:10;;;;;;;60.10;36.05;;;;;;;;;;5108578;28;20028;-65
2021/07/04 00:10:39;;;;;;;56.72;36.20;;;;;;;;;;5109509;28;20157;-65
2021/07/04 00:13:05;;;;;;;54.40;34.92;;;;;;;;;;5109811;28;20051;-65
2021/07/04 00:15:38;;;;;;;56.88;36.33;;;;;;;;;;5109122;28;20031;-65
2021/07/04 00:18:04;;;;;;;52.63;34.50;;;;;;;;;;5108032;28;21747;-65
2021/07/04 00:20:31;;;;;;;56.88;36.35;;;;;;;;;;5108939;28;20035;-65
2021/07/04 00:22:57;;;;;;;56.17;35.05;;;;;;;;;;5090952;28;20012;-65
2021/07/04 00:25:24;;;;;;;52.75;34.03;;;;;;;;;;5109904;28;20020;-65
2021/07/04 00:27:50;;;;;;;55.45;34.10;;;;;;;;;;5108569;28;20127;-65
2021/07/04 00:30:16;;;;;;;56.17;34.33;;;;;;;;;;5091010;28;20019;-65
2021/07/04 00:32:43;;;;;;;55.55;33.75;;;;;;;;;;5108940;28;20076;-65
2021/07/04 00:35:10;;;;;;;51.03;31.92;;;;;;;;;;5108794;28;20020;-66
2021/07/04 00:37:36;;;;;;;51.83;32.20;;;;;;;;;;5108040;28;20023;-65
2021/07/04 00:40:03;;;;;;;53.03;33.75;;;;;;;;;;5109485;28;20039;-65
2021/07/04 00:42:30;;;;;;;45.85;29.02;;;;;;;;;;5088459;28;20028;-65
2021/07/04 00:44:56;;;;;;;45.65;29.27;;;;;;;;;;5106822;28;20022;-65
2021/07/04 00:47:22;;;;;;;47.33;30.30;;;;;;;;;;5089506;28;20491;-65
2021/07/04 00:49:48;;;;;;;51.00;30.00;;;;;;;;;;5108971;28;20050;-65
2021/07/04 00:52:14;;;;;;;51.25;30.40;;;;;;;;;;5109830;28;20031;-65
2021/07/04 00:54:40;;;;;;;55.47;31.00;;;;;;;;;;5090262;28;21131;-65
2021/07/04 00:57:07;;;;;;;46.95;28.27;;;;;;;;;;5108486;28;20028;-65
2021/07/04 00:59:33;;;;;;;46.33;27.05;;;;;;;;;;5090926;28;20035;-65
2021/07/04 01:01:59;;;;;;;47.88;27.60;;;;;;;;;;5109165;28;20024;-65
2021/07/04 01:04:28;;;;;;;41.47;26.70;;;;;;;;;;5111883;28;20038;-65
2021/07/04 01:06:54;;;;;;;39.55;26.10;;;;;;;;;;5092434;28;20035;-66
2021/07/04 01:09:20;;;;;;;40.83;26.27;;;;;;;;;;5113081;28;20027;-65
2021/07/04 01:11:47;;;;;;;44.53;26.50;;;;;;;;;;5112499;28;20064;-65
2021/07/04 01:14:13;;;;;;;39.75;26.15;;;;;;;;;;5112382;28;20031;-65
2021/07/04 01:16:39;;;;;;;37.50;24.55;;;;;;;;;;5093793;28;20507;-65
2021/07/04 01:19:07;;;;;;;36.42;23.65;;;;;;;;;;5092972;28;20016;-65
2021/07/04 01:21:33;;;;;;;31.63;21.45;;;;;;;;;;5112778;28;20269;-65
2021/07/04 01:24:00;;;;;;;36.25;23.35;;;;;;;;;;5112489;28;20545;-65
2021/07/04 01:26:26;;;;;;;49.38;28.73;;;;;;;;;;5112292;28;20023;-65
2021/07/04 01:28:53;;;;;;;35.42;24.30;;;;;;;;;;5109805;28;20039;-65
2021/07/04 01:31:19;;;;;;;39.20;23.98;;;;;;;;;;5112109;28;20106;-65
2021/07/04 01:33:45;;;;;;;38.95;24.58;;;;;;;;;;5093343;28;20030;-65
2021/07/04 01:36:11;;;;;;;36.10;22.88;;;;;;;;;;5111496;28;20031;-65
2021/07/04 01:38:37;;;;;;;35.83;22.00;;;;;;;;;;5110839;28;20510;-65
2021/07/04 01:41:04;;;;;;;32.88;22.17;;;;;;;;;;5092603;28;20032;-65
2021/07/04 01:43:30;;;;;;;35.00;21.58;;;;;;;;;;5111851;28;20028;-65
2021/07/04 01:45:56;;;;;;;34.90;22.20;;;;;;;;;;5111688;28;20038;-65
2021/07/04 01:48:22;;;;;;;34.28;22.00;;;;;;;;;;5092437;28;20019;-65
2021/07/04 01:50:49;;;;;;;30.50;20.30;;;;;;;;;;5111964;27;20052;-65
2021/07/04 01:53:16;;;;;;;32.67;21.77;;;;;;;;;;5092858;28;20028;-65
2021/07/04 01:55:42;;;;;;;30.17;19.05;;;;;;;;;;5109149;28;20031;-65
2021/07/04 01:58:08;;;;;;;30.05;20.00;;;;;;;;;;5110881;28;20419;-65
2021/07/04 02:00:36;;;;;;;28.00;19.33;;;;;;;;;;5111595;28;20029;-65
2021/07/04 02:03:04;;;;;;;25.77;18.20;;;;;;;;;;5111657;28;20065;-65
2021/07/04 02:05:30;;;;;;;26.00;18.17;;;;;;;;;;5111474;28;20027;-65
2021/07/04 02:07:56;;;;;;;23.85;18.02;;;;;;;;;;5110019;28;20031;-65
2021/07/04 02:10:23;;;;;;;26.52;18.08;;;;;;;;;;5111819;28;20100;-65
2021/07/04 02:12:50;;;;;;;23.83;17.60;;;;;;;;;;5111406;28;20028;-65
2021/07/04 02:15:26;;;;;;;26.75;17.38;;;;;;;;;;5111132;28;20054;-65
2021/07/04 02:17:53;;;;;;;27.38;17.88;;;;;;;;;;5091553;28;20028;-65
2021/07/04 02:20:31;;;;;;;26.98;18.52;;;;;;;;;;5111353;28;20024;-65
2021/07/04 02:22:58;;;;;;;27.73;18.60;;;;;;;;;;5111449;28;20046;-65
2021/07/04 02:25:24;;;;;;;26.00;18.00;;;;;;;;;;5111287;28;20486;-65
2021/07/04 02:27:50;;;;;;;23.55;16.38;;;;;;;;;;5091055;28;20027;-65
2021/07/04 02:30:16;;;;;;;26.35;17.58;;;;;;;;;;5110996;28;20035;-65
2021/07/04 02:32:42;;;;;;;26.52;16.75;;;;;;;;;;5110877;28;20035;-65
2021/07/04 02:35:08;;;;;;;24.42;16.67;;;;;;;;;;5092301;28;20063;-65
2021/07/04 02:37:34;;;;;;;25.55;16.52;;;;;;;;;;5109722;28;20030;-65
2021/07/04 02:40:01;;;;;;;24.83;15.23;;;;;;;;;;5110503;28;20395;-65
2021/07/04 02:42:27;;;;;;;25.95;17.60;;;;;;;;;;5091874;28;20028;-65
2021/07/04 02:44:53;;;;;;;29.67;18.48;;;;;;;;;;5110481;28;20099;-65
2021/07/04 02:47:19;;;;;;;28.67;18.58;;;;;;;;;;5109948;28;20016;-65
2021/07/04 02:49:45;;;;;;;25.92;17.67;;;;;;;;;;5110852;28;20044;-65
2021/07/04 02:52:11;;;;;;;30.63;18.95;;;;;;;;;;5110264;28;20506;-65
2021/07/04 02:54:37;;;;;;;43.50;21.20;;;;;;;;;;5110530;28;20039;-65
2021/07/04 02:57:05;;;;;;;36.25;19.88;;;;;;;;;;5109471;28;20027;-65
2021/07/04 02:59:31;;;;;;;38.97;21.52;;;;;;;;;;5110554;28;20034;-65
2021/07/04 03:01:57;;;;;;;36.08;18.60;;;;;;;;;;5110319;28;20028;-65
2021/07/04 03:04:23;;;;;;;31.33;19.02;;;;;;;;;;5091492;28;20050;-65
2021/07/04 03:06:50;;;;;;;29.63;19.23;;;;;;;;;;5109538;28;20016;-65
2021/07/04 03:09:16;;;;;;;38.17;20.27;;;;;;;;;;5110291;28;20027;-65
2021/07/04 03:11:42;;;;;;;26.13;17.80;;;;;;;;;;5090946;28;20019;-65
2021/07/04 03:14:08;;;;;;;41.20;20.88;;;;;;;;;;5110140;28;20072;-65
2021/07/04 03:16:34;;;;;;;29.20;18.25;;;;;;;;;;5109447;28;20038;-65
2021/07/04 03:19:00;;;;;;;24.60;17.30;;;;;;;;;;5108904;28;20019;-65
2021/07/04 03:21:26;;;;;;;25.20;16.70;;;;;;;;;;5108054;28;20031;-65
2021/07/04 03:23:52;;;;;;;24.58;16.90;;;;;;;;;;5092022;28;20035;-65
2021/07/04 03:26:20;;;;;;;45.10;15.98;;;;;;;;;;5091398;28;20024;-65
2021/07/04 03:28:46;;;;;;;34.70;15.30;;;;;;;;;;5108942;28;20073;-65
2021/07/04 03:31:12;;;;;;;21.92;15.13;;;;;;;;;;5109319;28;20024;-65
2021/07/04 03:33:38;;;;;;;20.88;15.05;;;;;;;;;;5091617;28;20478;-65
2021/07/04 03:36:04;;;;;;;22.75;14.57;;;;;;;;;;5110012;28;20514;-65
2021/07/04 03:38:31;;;;;;;18.42;13.18;;;;;;;;;;5109031;28;20042;-65
2021/07/04 03:40:57;;;;;;;18.27;13.07;;;;;;;;;;5109545;28;20039;-65
2021/07/04 03:43:23;;;;;;;17.63;13.02;;;;;;;;;;5108192;28;20024;-65
2021/07/04 03:45:49;;;;;;;20.95;14.68;;;;;;;;;;5091706;28;20030;-65
2021/07/04 03:48:15;;;;;;;18.20;13.02;;;;;;;;;;5108473;28;20479;-65
2021/07/04 03:50:42;;;;;;;20.40;12.82;;;;;;;;;;5109821;28;20520;-65
2021/07/04 03:53:08;;;;;;;19.10;14.15;;;;;;;;;;5109915;28;20028;-65
2021/07/04 03:55:34;;;;;;;18.95;12.98;;;;;;;;;;5091429;28;20035;-65
2021/07/04 03:58:00;;;;;;;19.50;13.45;;;;;;;;;;5108317;28;20030;-65
2021/07/04 04:00:26;;;;;;;22.80;14.18;;;;;;;;;;5089245;28;20560;-65
2021/07/04 04:02:52;;;;;;;21.88;15.93;;;;;;;;;;5090870;28;20076;-65
2021/07/04 04:05:18;;;;;;;22.95;14.73;;;;;;;;;;5109026;28;20038;-65
2021/07/04 04:07:44;;;;;;;25.23;16.20;;;;;;;;;;5088628;28;20502;-65
2021/07/04 04:10:12;;;;;;;30.33;17.95;;;;;;;;;;5091179;28;20023;-65
2021/07/04 04:12:38;;;;;;;32.05;19.05;;;;;;;;;;5109281;28;20030;-65
2021/07/04 04:15:05;;;;;;;27.42;19.00;;;;;;;;;;5090878;28;20036;-65
2021/07/04 04:17:31;;;;;;;25.77;18.33;;;;;;;;;;5103726;28;20025;-64
2021/07/04 04:19:57;;;;;;;24.77;17.63;;;;;;;;;;5109405;28;20026;-65
2021/07/04 04:22:24;;;;;;;24.45;16.70;;;;;;;;;;5109655;28;20486;-65
2021/07/04 04:24:50;;;;;;;26.73;16.77;;;;;;;;;;5110050;28;20024;-65
2021/07/04 04:27:16;;;;;;;29.80;17.95;;;;;;;;;;5108015;28;20114;-64
2021/07/04 04:29:42;;;;;;;24.80;17.30;;;;;;;;;;5109144;28;20020;-65
2021/07/04 04:32:08;;;;;;;26.30;18.83;;;;;;;;;;5109307;28;20031;-64
2021/07/04 04:34:34;;;;;;;20.73;15.38;;;;;;;;;;5108899;28;20122;-65
2021/07/04 04:37:01;;;;;;;24.42;17.80;;;;;;;;;;5108366;28;20016;-65
2021/07/04 04:39:27;;;;;;;28.27;18.52;;;;;;;;;;5112613;28;20035;-65
2021/07/04 04:41:53;;;;;;;28.05;18.85;;;;;;;;;;5113163;28;20541;-64
2021/07/04 04:44:19;;;;;;;23.90;17.15;;;;;;;;;;5113305;28;20023;-64
2021/07/04 04:46:45;;;;;;;25.13;18.75;;;;;;;;;;5111907;28;20024;-64
2021/07/04 04:49:11;;;;;;;30.73;19.10;;;;;;;;;;5108876;28;20039;-64
2021/07/04 04:51:38;;;;;;;24.75;18.73;;;;;;;;;;5112487;28;20038;-64
2021/07/04 04:54:04;;;;;;;28.27;20.63;;;;;;;;;;5094081;28;20023;-64
2021/07/04 04:56:31;;;;;;;31.35;21.55;;;;;;;;;;5094596;28;20042;-65
2021/07/04 04:58:57;;;;;;;30.17;21.95;;;;;;;;;;5111842;28;20028;-64
2021/07/04 05:01:26;;;;;;;35.53;25.08;;;;;;;;;;5091172;28;20084;-65
2021/07/04 05:03:52;;;;;;;37.95;25.02;;;;;;;;;;5112784;28;20138;-65
2021/07/04 05:06:18;;;;;;;35.83;23.27;;;;;;;;;;5101908;28;20027;-64
2021/07/04 05:08:44;;;;;;;39.83;26.77;;;;;;;;;;5111261;28;20069;-65
2021/07/04 05:11:11;;;;;;;35.45;24.98;;;;;;;;;;5110045;28;20024;-65
2021/07/04 05:13:37;;;;;;;32.42;24.73;;;;;;;;;;5112641;28;20027;-65
2021/07/04 05:16:03;;;;;;;35.20;28.27;;;;;;;;;;5110941;28;20042;-65
2021/07/04 05:18:29;;;;;;;35.05;26.95;;;;;;;;;;5111648;28;20019;-64
2021/07/04 05:20:55;;;;;;;34.63;25.48;;;;;;;;;;5093549;28;20016;-64
2021/07/04 05:23:21;;;;;;;35.47;25.75;;;;;;;;;;5093511;28;20479;-65
2021/07/04 05:25:49;;;;;;;34.42;26.55;;;;;;;;;;5112412;28;20039;-64
2021/07/04 05:28:15;;;;;;;42.45;29.38;;;;;;;;;;5110951;28;20077;-65
2021/07/04 05:30:41;;;;;;;35.05;24.88;;;;;;;;;;5093663;28;20067;-65
2021/07/04 05:33:07;;;;;;;35.10;27.42;;;;;;;;;;5109582;28;20042;-65
2021/07/04 05:35:33;;;;;;;35.95;25.48;;;;;;;;;;5111512;28;20696;-65
2021/07/04 05:37:59;;;;;;;36.45;24.27;;;;;;;;;;5110604;28;20052;-64
2021/07/04 05:40:26;;;;;;;33.20;23.67;;;;;;;;;;5093577;28;20031;-65
2021/07/04 05:42:52;;;;;;;38.00;25.65;;;;;;;;;;5112034;28;20020;-65
2021/07/04 05:45:25;;;;;;;30.80;23.23;;;;;;;;;;5112694;27;20023;-65
2021/07/04 05:47:52;;;;;;;37.80;25.77;;;;;;;;;;5109769;28;20102;-65
2021/07/04 05:50:18;;;;;;;36.50;24.88;;;;;;;;;;5089715;28;20051;-64
2021/07/04 05:52:45;;;;;;;39.45;26.67;;;;;;;;;;5111630;28;20046;-67
2021/07/04 05:55:12;;;;;;;41.53;24.90;;;;;;;;;;5109040;28;20051;-65
2021/07/04 05:57:38;;;;;;;34.47;25.42;;;;;;;;;;5091412;28;20028;-65
2021/07/04 06:00:05;;;;;;;34.38;26.30;;;;;;;;;;5111724;28;20043;-65
2021/07/04 06:02:31;;;;;;;35.88;25.40;;;;;;;;;;5111244;28;20065;-65
2021/07/04 06:04:57;;;;;;;37.83;24.42;;;;;;;;;;5109635;28;20344;-65
2021/07/04 06:07:23;;;;;;;32.97;24.00;;;;;;;;;;5109603;28;20047;-65
2021/07/04 06:09:49;;;;;;;31.02;22.35;;;;;;;;;;5109993;28;20015;-65
2021/07/04 06:12:15;;;;;;;32.72;21.10;;;;;;;;;;5110861;28;20032;-65
2021/07/04 06:14:42;;;;;;;31.48;23.13;;;;;;;;;;5091567;28;20027;-65
2021/07/04 06:17:08;;;;;;;32.38;20.25;;;;;;;;;;5110177;28;20027;-66
2021/07/04 06:19:34;;;;;;;33.00;21.05;;;;;;;;;;5092665;28;20029;-65
2021/07/04 06:22:00;;;;;;;29.23;19.10;;;;;;;;;;5092044;28;20027;-65
2021/07/04 06:24:26;;;;;;;42.22;23.60;;;;;;;;;;5110923;28;20049;-65
2021/07/04 06:26:52;;;;;;;30.45;20.23;;;;;;;;;;5110214;28;20054;-65
2021/07/04 06:29:18;;;;;;;31.52;19.10;;;;;;;;;;5109058;28;20024;-65
2021/07/04 06:31:44;;;;;;;31.42;22.20;;;;;;;;;;5091851;28;20047;-65
2021/07/04 06:34:10;;;;;;;31.63;20.77;;;;;;;;;;5109375;28;20039;-65
2021/07/04 06:36:37;;;;;;;30.58;20.63;;;;;;;;;;5109145;28;20048;-65
2021/07/04 06:39:03;;;;;;;31.70;21.77;;;;;;;;;;5107956;28;20131;-65
2021/07/04 06:41:29;;;;;;;29.83;20.23;;;;;;;;;;5088675;28;20036;-66
2021/07/04 06:43:55;;;;;;;30.80;20.92;;;;;;;;;;5109859;28;20123;-66
2021/07/04 06:46:21;;;;;;;30.88;20.17;;;;;;;;;;5108635;28;20035;-65
2021/07/04 06:48:47;;;;;;;33.67;22.90;;;;;;;;;;5108594;28;20019;-66
2021/07/04 06:51:13;;;;;;;36.85;22.95;;;;;;;;;;5089282;27;20138;-65
2021/07/04 06:53:39;;;;;;;32.97;21.27;;;;;;;;;;5109969;27;20033;-66
2021/07/04 06:56:05;;;;;;;30.67;21.00;;;;;;;;;;5093136;28;20095;-66
2021/07/04 06:58:32;;;;;;;33.80;20.45;;;;;;;;;;5110053;27;20027;-66
2021/07/04 07:00:58;;;;;;;28.75;19.10;;;;;;;;;;5108066;27;20024;-66
2021/07/04 07:03:24;;;;;;;30.90;18.75;;;;;;;;;;5112465;27;20011;-66
2021/07/04 07:05:50;;;;;;;30.98;19.13;;;;;;;;;;5108780;27;20023;-65
2021/07/04 07:08:16;;;;;;;28.08;19.17;;;;;;;;;;5083481;28;20024;-66
2021/07/04 07:10:42;;;;;;;29.17;21.48;;;;;;;;;;5107813;27;20038;-66
2021/07/04 07:13:08;;;;;;;24.35;17.25;;;;;;;;;;5105198;27;20039;-66
2021/07/04 07:15:34;;;;;;;25.15;16.77;;;;;;;;;;5105708;28;20069;-66
2021/07/04 07:18:00;;;;;;;24.58;16.65;;;;;;;;;;5103878;27;20027;-66
2021/07/04 07:20:26;;;;;;;22.23;15.27;;;;;;;;;;5088981;28;20483;-66
2021/07/04 07:22:52;;;;;;;21.02;14.35;;;;;;;;;;5106801;28;20107;-66
2021/07/04 07:25:18;;;;;;;25.17;14.63;;;;;;;;;;5104861;28;20020;-66
2021/07/04 07:27:44;;;;;;;22.33;13.68;;;;;;;;;;5104728;28;20494;-67
2021/07/04 07:30:11;;;;;;;21.42;12.70;;;;;;;;;;5090545;28;20023;-67
2021/07/04 07:32:38;;;;;;;23.02;14.77;;;;;;;;;;5106967;28;20027;-67
2021/07/04 07:35:08;;;;;;;23.35;14.27;;;;;;;;;;5108296;28;20042;-67
2021/07/04 07:37:34;;;;;;;22.75;13.73;;;;;;;;;;5103178;28;20069;-66
2021/07/04 07:40:00;;;;;;;20.73;14.15;;;;;;;;;;5109507;28;20047;-67
2021/07/04 07:42:26;;;;;;;20.63;13.25;;;;;;;;;;5107433;28;20028;-66
2021/07/04 07:44:52;;;;;;;18.15;12.07;;;;;;;;;;5088176;28;20031;-66
2021/07/04 07:47:18;;;;;;;25.73;13.02;;;;;;;;;;5105217;28;20023;-66
2021/07/04 07:49:44;;;;;;;21.50;12.45;;;;;;;;;;5087147;28;20048;-66
2021/07/04 07:52:10;;;;;;;18.15;12.73;;;;;;;;;;5091183;28;20076;-67
2021/07/04 07:54:36;;;;;;;16.40;11.57;;;;;;;;;;5109419;27;20518;-66
2021/07/04 07:57:04;;;;;;;20.88;13.27;;;;;;;;;;5085805;28;20285;-66
2021/07/04 07:59:30;;;;;;;19.67;13.35;;;;;;;;;;5091722;28;20090;-67
2021/07/04 08:01:56;;;;;;;19.25;12.73;;;;;;;;;;5091651;28;20020;-66
2021/07/04 08:04:22;;;;;;;20.65;12.43;;;;;;;;;;5088455;28;20111;-66
2021/07/04 08:06:48;;;;;;;19.98;12.52;;;;;;;;;;5099049;28;20502;-67
2021/07/04 08:09:14;;;;;;;21.45;12.30;;;;;;;;;;5095610;28;20031;-66
2021/07/04 08:11:41;;;;;;;18.20;11.23;;;;;;;;;;5102885;28;20029;-66
2021/07/04 08:14:07;;;;;;;19.02;9.88;;;;;;;;;;5101911;27;20077;-66
2021/07/04 08:16:33;;;;;;;18.75;9.27;;;;;;;;;;5105446;28;20024;-66
2021/07/04 08:18:59;;;;;;;18.65;8.48;;;;;;;;;;5106618;28;20020;-66
2021/07/04 08:21:28;;;;;;;14.02;8.20;;;;;;;;;;5108323;28;20920;-66
2021/07/04 08:23:54;;;;;;;15.00;6.70;;;;;;;;;;5106911;28;20020;-66
2021/07/04 08:26:20;;;;;;;13.63;7.45;;;;;;;;;;5108150;27;20019;-67
2021/07/04 08:28:46;;;;;;;11.60;7.10;;;;;;;;;;5087697;28;20368;-66
2021/07/04 08:31:12;;;;;;;14.52;8.00;;;;;;;;;;5109122;28;20469;-66
2021/07/04 08:33:39;;;;;;;11.13;7.05;;;;;;;;;;5110620;28;20020;-66
2021/07/04 08:36:05;;;;;;;13.52;7.13;;;;;;;;;;5093798;28;20241;-66
2021/07/04 08:38:31;;;;;;;14.10;6.07;;;;;;;;;;5108665;28;20031;-66
2021/07/04 08:40:57;;;;;;;15.93;7.50;;;;;;;;;;5107860;28;20426;-66
2021/07/04 08:43:30;;;;;;;10.25;6.20;;;;;;;;;;5092406;28;20539;-66
2021/07/04 08:45:56;;;;;;;16.70;6.65;;;;;;;;;;5109735;28;20609;-66
2021/07/04 08:48:23;;;;;;;12.32;5.85;;;;;;;;;;5107445;28;20483;-66
2021/07/04 08:50:49;;;;;;;9.60;5.43;;;;;;;;;;5106447;27;20067;-66
2021/07/04 08:53:15;;;;;;;9.80;4.60;;;;;;;;;;5107927;28;20077;-66
2021/07/04 08:55:43;;;;;;;9.90;5.15;;;;;;;;;;5090357;28;20058;-66
2021/07/04 08:58:09;;;;;;;10.55;4.72;;;;;;;;;;5106376;28;20040;-65
2021/07/04 09:00:35;;;;;;;9.05;4.53;;;;;;;;;;5107393;28;20030;-66
2021/07/04 09:03:01;;;;;;;13.32;5.35;;;;;;;;;;5087161;28;20047;-66
2021/07/04 09:05:42;;;;;;;12.95;5.63;;;;;;;;;;5109414;27;20019;-67
2021/07/04 09:08:28;;;;;;;13.63;5.67;;;;;;;;;;5104850;28;20054;-66
2021/07/04 09:11:10;;;;;;;11.70;5.20;;;;;;;;;;5108873;28;20028;-65
2021/07/04 09:13:36;;;;;;;13.43;5.32;;;;;;;;;;5087403;28;20024;-66
2021/07/04 09:16:04;;;;;;;13.93;4.97;;;;;;;;;;5111546;28;20034;-66
2021/07/04 09:18:30;;;;;;;12.43;6.03;;;;;;;;;;5107025;28;20514;-65
2021/07/04 09:20:56;;;;;;;9.50;5.57;;;;;;;;;;5100478;28;20399;-65
2021/07/04 09:23:33;;;;;;;11.50;5.35;;;;;;;;;;5090649;28;20391;-65
2021/07/04 09:25:59;;;;;;;13.90;5.45;;;;;;;;;;5108282;27;20098;-66
2021/07/04 09:28:25;;;;;;;10.45;4.85;;;;;;;;;;5111968;27;20065;-66
2021/07/04 09:30:51;;;;;;;9.57;4.93;;;;;;;;;;5107750;28;20107;-66
2021/07/04 09:33:31;;;;;;;10.88;5.25;;;;;;;;;;5109399;28;20175;-66
2021/07/04 09:35:58;;;;;;;11.82;4.85;;;;;;;;;;5091872;28;20023;-65
2021/07/04 09:38:26;;;;;;;8.38;4.18;;;;;;;;;;5110394;28;20027;-66
2021/07/04 09:40:53;;;;;;;11.10;4.55;;;;;;;;;;5109598;27;20028;-66
2021/07/04 09:43:19;;;;;;;16.38;5.35;;;;;;;;;;5108846;28;20030;-65
2021/07/04 09:45:48;;;;;;;10.68;4.75;;;;;;;;;;5109866;28;20011;-65
2021/07/04 09:48:23;;;;;;;8.80;3.92;;;;;;;;;;5110225;28;20011;-66
2021/07/04 09:50:51;;;;;;;8.68;4.35;;;;;;;;;;5087409;28;20050;-66
2021/07/04 09:53:18;;;;;;;9.43;5.13;;;;;;;;;;5110145;28;20035;-65
2021/07/04 09:55:44;;;;;;;8.18;4.60;;;;;;;;;;5110690;28;20231;-65
2021/07/04 09:58:11;;;;;;;12.55;5.05;;;;;;;;;;5091895;28;20019;-65
2021/07/04 10:00:39;;;;;;;11.10;5.18;;;;;;;;;;5105734;28;20034;-65
2021/07/04 10:03:08;;;;;;;11.40;5.53;;;;;;;;;;5091439;28;20027;-66
2021/07/04 10:05:35;;;;;;;10.88;5.65;;;;;;;;;;5108773;28;20102;-66
2021/07/04 10:08:01;;;;;;;15.73;7.13;;;;;;;;;;5106898;28;20023;-66
2021/07/04 10:10:27;;;;;;;14.48;5.93;;;;;;;;;;5106891;28;20514;-65
2021/07/04 10:12:54;;;;;;;18.55;7.28;;;;;;;;;;5109041;28;20032;-66
2021/07/04 10:15:20;;;;;;;16.13;7.47;;;;;;;;;;5103656;28;20479;-65
2021/07/04 10:17:47;;;;;;;16.20;7.75;;;;;;;;;;5102796;28;20028;-66
2021/07/04 10:20:13;;;;;;;13.50;8.70;;;;;;;;;;5087378;28;20028;-65
2021/07/04 10:22:39;;;;;;;19.13;8.93;;;;;;;;;;5110444;28;20019;-66
2021/07/04 10:25:06;;;;;;;19.50;8.95;;;;;;;;;;5095279;28;20051;-66
2021/07/04 10:27:38;;;;;;;16.00;8.13;;;;;;;;;;5090971;28;20066;-65
2021/07/04 10:30:04;;;;;;;19.15;8.68;;;;;;;;;;5095309;28;20027;-66
2021/07/04 10:32:31;;;;;;;14.25;8.38;;;;;;;;;;5108000;28;20074;-65
2021/07/04 10:35:05;;;;;;;14.88;8.30;;;;;;;;;;5107877;28;20265;-66
2021/07/04 10:37:33;;;;;;;14.27;8.35;;;;;;;;;;5087242;28;20041;-66
2021/07/04 10:40:13;;;;;;;16.05;9.02;;;;;;;;;;5085754;28;20041;-66
2021/07/04 10:42:39;;;;;;;17.75;9.10;;;;;;;;;;5103877;28;20023;-66
2021/07/04 10:45:25;;;;;;;14.95;7.95;;;;;;;;;;5089444;28;20023;-66
2021/07/04 10:47:56;;;;;;;15.10;8.02;;;;;;;;;;5103241;28;20089;-66
2021/07/04 10:50:22;;;;;;;13.32;6.55;;;;;;;;;;5103001;28;20205;-66
2021/07/04 10:52:49;;;;;;;12.50;6.10;;;;;;;;;;5109018;28;20038;-66
2021/07/04 10:55:32;;;;;;;13.65;5.95;;;;;;;;;;5106075;28;20030;-66
2021/07/04 10:58:00;;;;;;;16.65;6.43;;;;;;;;;;5102851;28;20027;-66
2021/07/04 11:00:38;;;;;;;15.90;6.70;;;;;;;;;;5102033;28;20063;-66
2021/07/04 11:03:11;;;;;;;12.90;5.63;;;;;;;;;;5107238;28;20107;-65
2021/07/04 11:05:41;;;;;;;9.75;5.43;;;;;;;;;;5103097;27;20031;-65
2021/07/04 11:08:09;;;;;;;14.07;5.40;;;;;;;;;;5108405;28;20270;-66
2021/07/04 11:10:50;;;;;;;7.38;4.60;;;;;;;;;;5106097;28;20024;-65
2021/07/04 11:13:25;;;;;;;8.02;4.22;;;;;;;;;;5107434;28;20049;-65
2021/07/04 11:15:52;;;;;;;10.52;4.45;;;;;;;;;;5102780;28;20042;-66
2021/07/04 11:18:19;;;;;;;9.77;4.60;;;;;;;;;;5098367;28;20016;-65
2021/07/04 11:20:46;;;;;;;10.30;4.28;;;;;;;;;;5091867;28;20024;-66
2021/07/04 11:23:25;;;;;;;14.60;5.50;;;;;;;;;;5097700;28;20054;-67
2021/07/04 11:25:53;;;;;;;10.38;5.03;;;;;;;;;;5100466;28;20074;-65
2021/07/04 11:28:19;;;;;;;9.18;4.38;;;;;;;;;;5104978;28;20027;-65
2021/07/04 11:30:46;;;;;;;10.13;4.93;;;;;;;;;;5105321;28;20036;-65
2021/07/04 11:33:32;;;;;;;13.38;5.78;;;;;;;;;;5096664;28;20171;-65
2021/07/04 11:35:58;;;;;;;9.32;4.72;;;;;;;;;;5077693;28;20023;-66
2021/07/04 11:38:25;;;;;;;12.80;4.50;;;;;;;;;;5104185;28;20032;-65
2021/07/04 11:40:52;;;;;;;9.57;3.47;;;;;;;;;;5098900;27;20441;-65
2021/07/04 11:43:20;;;;;;;5.85;3.35;;;;;;;;;;5107042;28;20068;-65
2021/07/04 11:45:50;;;;;;;7.40;3.97;;;;;;;;;;5099877;28;20020;-65
2021/07/04 11:48:16;;;;;;;5.65;3.30;;;;;;;;;;5096435;28;20031;-65
2021/07/04 11:50:50;;;;;;;7.18;3.03;;;;;;;;;;5099496;28;20043;-66
2021/07/04 11:53:16;;;;;;;6.18;3.25;;;;;;;;;;5083715;28;20061;-66
2021/07/04 11:56:02;;;;;;;8.00;3.80;;;;;;;;;;5082467;28;20533;-66
2021/07/04 11:58:29;;;;;;;9.65;4.18;;;;;;;;;;5099646;28;20082;-66
2021/07/04 12:00:55;;;;;;;7.85;3.80;;;;;;;;;;5082910;28;20762;-66
2021/07/04 12:03:22;;;;;;;8.52;3.90;;;;;;;;;;5086032;28;20031;-66
2021/07/04 12:05:49;;;;;;;10.77;4.57;;;;;;;;;;5090551;28;20047;-66
2021/07/04 12:08:15;;;;;;;8.60;4.22;;;;;;;;;;5096874;28;20016;-66
2021/07/04 12:10:53;;;;;;;11.25;4.43;;;;;;;;;;5099292;28;20035;-66
2021/07/04 12:13:20;;;;;;;11.05;3.80;;;;;;;;;;5101823;28;20505;-65
2021/07/04 12:15:51;;;;;;;8.40;3.80;;;;;;;;;;5101380;28;20016;-66
2021/07/04 12:18:18;;;;;;;9.88;3.85;;;;;;;;;;5098302;28;20541;-67
2021/07/04 12:20:52;;;;;;;6.53;3.20;;;;;;;;;;5094565;28;20522;-66
2021/07/04 12:23:18;;;;;;;10.00;4.00;;;;;;;;;;5099216;28;20082;-65
2021/07/04 12:25:44;;;;;;;7.85;3.10;;;;;;;;;;5081472;28;20650;-66
2021/07/04 12:28:12;;;;;;;8.20;3.75;;;;;;;;;;5098338;28;20475;-66
2021/07/04 12:30:39;;;;;;;7.25;3.40;;;;;;;;;;5098556;28;20043;-65
2021/07/04 12:33:10;;;;;;;10.13;4.10;;;;;;;;;;5099678;28;20034;-66
2021/07/04 12:35:49;;;;;;;10.95;3.75;;;;;;;;;;5099093;28;20028;-65
2021/07/04 12:38:15;;;;;;;9.45;3.00;;;;;;;;;;5101696;28;20024;-66
2021/07/04 12:40:53;;;;;;;5.95;3.20;;;;;;;;;;5099700;28;20126;-66
2021/07/04 12:43:21;;;;;;;6.88;3.05;;;;;;;;;;5083540;28;20411;-65
2021/07/04 12:45:48;;;;;;;9.63;3.63;;;;;;;;;;5103759;28;20025;-65
2021/07/04 12:48:15;;;;;;;10.50;3.33;;;;;;;;;;5106786;28;20084;-65
2021/07/04 12:50:47;;;;;;;6.65;3.50;;;;;;;;;;5099332;28;20047;-65
2021/07/04 12:53:13;;;;;;;8.70;4.10;;;;;;;;;;5101320;28;20065;-65
2021/07/04 12:55:39;;;;;;;8.38;3.67;;;;;;;;;;5101360;28;20032;-65
2021/07/04 12:58:24;;;;;;;9.50;3.92;;;;;;;;;;5078307;28;20287;-65
2021/07/04 13:00:51;;;;;;;6.57;3.95;;;;;;;;;;5102059;28;20139;-65
2021/07/04 13:03:39;;;;;;;10.05;5.10;;;;;;;;;;5104315;28;20026;-65
2021/07/04 13:06:06;;;;;;;9.85;5.10;;;;;;;;;;5104576;28;20038;-65
2021/07/04 13:08:32;;;;;;;13.20;5.07;;;;;;;;;;5103808;28;20020;-65
2021/07/04 13:10:59;;;;;;;10.48;5.88;;;;;;;;;;5102662;28;20042;-65
2021/07/04 13:13:25;;;;;;;11.77;6.40;;;;;;;;;;5105878;28;20082;-65
2021/07/04 13:15:51;;;;;;;12.45;7.38;;;;;;;;;;5084703;28;20244;-65
2021/07/04 13:18:27;;;;;;;13.20;5.68;;;;;;;;;;5105077;28;20019;-65
2021/07/04 13:20:54;;;;;;;10.77;6.25;;;;;;;;;;5103098;28;20015;-65
2021/07/04 13:23:20;;;;;;;12.32;6.10;;;;;;;;;;5105189;28;20026;-64
2021/07/04 13:25:53;;;;;;;10.95;6.53;;;;;;;;;;5105818;28;20028;-65
2021/07/04 13:28:19;;;;;;;12.23;7.72;;;;;;;;;;5104214;28;20024;-64
2021/07/04 13:30:52;;;;;;;14.25;6.30;;;;;;;;;;5081427;28;20031;-64
2021/07/04 13:33:27;;;;;;;10.95;7.13;;;;;;;;;;5104038;28;20040;-65
2021/07/04 13:35:53;;;;;;;8.52;4.50;;;;;;;;;;5104774;28;20091;-64
2021/07/04 13:38:19;;;;;;;12.88;5.20;;;;;;;;;;5105353;28;21249;-65
2021/07/04 13:40:50;;;;;;;7.07;4.55;;;;;;;;;;5103650;28;20035;-65
2021/07/04 13:43:16;;;;;;;10.57;5.15;;;;;;;;;;5105484;28;20487;-64
2021/07/04 13:45:45;;;;;;;8.25;5.30;;;;;;;;;;5104795;28;20028;-64
2021/07/04 13:48:16;;;;;;;8.23;5.43;;;;;;;;;;5104245;27;20026;-65
2021/07/04 13:50:47;;;;;;;8.63;5.10;;;;;;;;;;5101161;28;20043;-65
2021/07/04 13:53:14;;;;;;;10.60;5.35;;;;;;;;;;5104341;28;20039;-64
2021/07/04 13:55:41;;;;;;;10.07;5.95;;;;;;;;;;5104034;28;20033;-64
2021/07/04 13:58:07;;;;;;;8.23;5.75;;;;;;;;;;5103314;28;20484;-64
2021/07/04 14:00:34;;;;;;;8.43;4.65;;;;;;;;;;5082672;28;20027;-64
2021/07/04 14:03:00;;;;;;;9.80;4.85;;;;;;;;;;5089829;28;20050;-65
2021/07/04 14:05:27;;;;;;;8.57;4.47;;;;;;;;;;5109784;28;20414;-65
2021/07/04 14:07:53;;;;;;;10.32;4.03;;;;;;;;;;5108429;28;20053;-65
2021/07/04 14:10:20;;;;;;;8.82;4.13;;;;;;;;;;5107304;28;20027;-66
2021/07/04 14:12:46;;;;;;;9.52;3.58;;;;;;;;;;5103726;28;20050;-65
2021/07/04 14:15:13;;;;;;;6.78;3.03;;;;;;;;;;5111402;28;20039;-65
2021/07/04 14:17:39;;;;;;;9.15;3.60;;;;;;;;;;5103728;28;20031;-66
2021/07/04 14:20:06;;;;;;;6.28;3.15;;;;;;;;;;5079813;28;20075;-65
2021/07/04 14:22:34;;;;;;;5.32;3.22;;;;;;;;;;5101911;27;20016;-66
2021/07/04 14:25:00;;;;;;;6.40;3.35;;;;;;;;;;5105327;27;20039;-66